sensor_id;sensor_type;location;lat;lon;timestamp;temperature;humidity
40556;DHT22;26250;45.422;11.100;2023-04-24T00:01:59;18.60;77.50
40556;DHT22;26250;45.422;11.100;2023-04-24T00:04:27;18.60;78.30
40556;DHT22;26250;45.422;11.100;2023-04-24T00:06:54;18.60;78.00
40556;DHT22;26250;45.422;11.100;2023-04-24T00:09:24;18.60;78.30
40556;DHT22;26250;45.422;11.100;2023-04-24T00:11:51;18.60;78.50
40556;DHT22;26250;45.422;11.100;2023-04-24T00:14:18;18.60;78.70
40556;DHT22;26250;45.422;11.100;2023-04-24T00:16:45;18.60;78.70
40556;DHT22;26250;45.422;11.100;2023-04-24T00:19:12;18.60;79.00
40556;DHT22;26250;45.422;11.100;2023-04-24T00:21:40;18.60;79.40
40556;DHT22;26250;45.422;11.100;2023-04-24T00:24:07;18.60;79.80
40556;DHT22;26250;45.422;11.100;2023-04-24T00:26:37;18.50;80.20
40556;DHT22;26250;45.422;11.100;2023-04-24T00:29:04;18.50;80.30
40556;DHT22;26250;45.422;11.100;2023-04-24T00:31:31;18.50;80.20
40556;DHT22;26250;45.422;11.100;2023-04-24T00:34:02;18.50;80.40
40556;DHT22;26250;45.422;11.100;2023-04-24T00:36:32;18.50;80.50
40556;DHT22;26250;45.422;11.100;2023-04-24T00:38:59;18.50;80.30
40556;DHT22;26250;45.422;11.100;2023-04-24T00:41:26;18.60;80.20
40556;DHT22;26250;45.422;11.100;2023-04-24T00:43:54;18.50;80.40
40556;DHT22;26250;45.422;11.100;2023-04-24T00:46:22;18.50;80.70
40556;DHT22;26250;45.422;11.100;2023-04-24T00:48:49;18.50;81.00
40556;DHT22;26250;45.422;11.100;2023-04-24T00:51:16;18.50;81.30
40556;DHT22;26250;45.422;11.100;2023-04-24T00:53:43;18.50;81.50
40556;DHT22;26250;45.422;11.100;2023-04-24T00:56:11;18.50;81.60
40556;DHT22;26250;45.422;11.100;2023-04-24T00:58:38;18.50;81.60
40556;DHT22;26250;45.422;11.100;2023-04-24T01:01:06;18.50;81.80
40556;DHT22;26250;45.422;11.100;2023-04-24T01:03:34;18.50;82.10
40556;DHT22;26250;45.422;11.100;2023-04-24T01:06:05;18.50;82.20
40556;DHT22;26250;45.422;11.100;2023-04-24T01:08:32;18.50;82.30
40556;DHT22;26250;45.422;11.100;2023-04-24T01:11:03;18.40;82.70
40556;DHT22;26250;45.422;11.100;2023-04-24T01:13:32;18.40;83.00
40556;DHT22;26250;45.422;11.100;2023-04-24T01:15:59;18.40;83.20
40556;DHT22;26250;45.422;11.100;2023-04-24T01:18:27;18.40;83.30
40556;DHT22;26250;45.422;11.100;2023-04-24T01:20:58;18.40;83.70
40556;DHT22;26250;45.422;11.100;2023-04-24T01:23:26;18.40;83.70
40556;DHT22;26250;45.422;11.100;2023-04-24T01:25:53;18.40;83.90
40556;DHT22;26250;45.422;11.100;2023-04-24T01:28:21;18.40;83.70
40556;DHT22;26250;45.422;11.100;2023-04-24T01:30:48;18.50;83.70
40556;DHT22;26250;45.422;11.100;2023-04-24T01:33:20;18.60;83.70
40556;DHT22;26250;45.422;11.100;2023-04-24T01:35:48;18.60;83.30
40556;DHT22;26250;45.422;11.100;2023-04-24T01:38:15;18.60;82.80
40556;DHT22;26250;45.422;11.100;2023-04-24T01:40:42;18.60;83.20
40556;DHT22;26250;45.422;11.100;2023-04-24T01:43:09;18.60;82.90
40556;DHT22;26250;45.422;11.100;2023-04-24T01:45:36;18.50;83.00
40556;DHT22;26250;45.422;11.100;2023-04-24T01:48:03;18.50;83.20
40556;DHT22;26250;45.422;11.100;2023-04-24T01:50:30;18.50;83.20
40556;DHT22;26250;45.422;11.100;2023-04-24T01:52:58;18.50;83.30
40556;DHT22;26250;45.422;11.100;2023-04-24T01:55:24;18.50;83.40
40556;DHT22;26250;45.422;11.100;2023-04-24T01:57:52;18.40;83.50
40556;DHT22;26250;45.422;11.100;2023-04-24T02:00:21;18.40;84.40
40556;DHT22;26250;45.422;11.100;2023-04-24T02:02:52;18.40;83.90
40556;DHT22;26250;45.422;11.100;2023-04-24T02:05:19;18.40;83.80
40556;DHT22;26250;45.422;11.100;2023-04-24T02:07:47;18.40;84.00
40556;DHT22;26250;45.422;11.100;2023-04-24T02:10:14;18.30;85.10
40556;DHT22;26250;45.422;11.100;2023-04-24T02:12:41;18.20;85.40
40556;DHT22;26250;45.422;11.100;2023-04-24T02:15:09;18.10;86.00
40556;DHT22;26250;45.422;11.100;2023-04-24T02:17:36;18.10;86.80
40556;DHT22;26250;45.422;11.100;2023-04-24T02:20:05;18.10;87.30
40556;DHT22;26250;45.422;11.100;2023-04-24T02:22:33;18.00;88.70
40556;DHT22;26250;45.422;11.100;2023-04-24T02:25:01;18.00;89.70
40556;DHT22;26250;45.422;11.100;2023-04-24T02:27:28;17.90;90.00
40556;DHT22;26250;45.422;11.100;2023-04-24T02:29:56;17.90;90.30
40556;DHT22;26250;45.422;11.100;2023-04-24T02:32:23;17.80;90.60
40556;DHT22;26250;45.422;11.100;2023-04-24T02:34:50;17.80;90.90
40556;DHT22;26250;45.422;11.100;2023-04-24T02:37:17;17.70;91.00
40556;DHT22;26250;45.422;11.100;2023-04-24T02:39:43;17.70;91.40
40556;DHT22;26250;45.422;11.100;2023-04-24T02:42:10;17.60;91.50
40556;DHT22;26250;45.422;11.100;2023-04-24T02:44:37;17.70;91.50
40556;DHT22;26250;45.422;11.100;2023-04-24T02:47:04;17.70;91.50
40556;DHT22;26250;45.422;11.100;2023-04-24T02:49:31;17.70;91.80
40556;DHT22;26250;45.422;11.100;2023-04-24T02:51:58;17.80;92.10
40556;DHT22;26250;45.422;11.100;2023-04-24T02:54:25;17.70;92.40
40556;DHT22;26250;45.422;11.100;2023-04-24T02:56:52;17.60;92.40
40556;DHT22;26250;45.422;11.100;2023-04-24T02:59:19;17.60;92.70
40556;DHT22;26250;45.422;11.100;2023-04-24T03:01:46;17.50;92.60
40556;DHT22;26250;45.422;11.100;2023-04-24T03:04:13;17.50;93.00
40556;DHT22;26250;45.422;11.100;2023-04-24T03:06:40;17.40;93.00
40556;DHT22;26250;45.422;11.100;2023-04-24T03:09:07;17.30;93.40
40556;DHT22;26250;45.422;11.100;2023-04-24T03:11:34;17.30;93.50
40556;DHT22;26250;45.422;11.100;2023-04-24T03:14:03;17.40;93.60
40556;DHT22;26250;45.422;11.100;2023-04-24T03:16:30;17.30;93.70
40556;DHT22;26250;45.422;11.100;2023-04-24T03:18:57;17.30;93.60
40556;DHT22;26250;45.422;11.100;2023-04-24T03:21:29;17.30;93.50
40556;DHT22;26250;45.422;11.100;2023-04-24T03:23:56;17.40;93.50
40556;DHT22;26250;45.422;11.100;2023-04-24T03:26:23;17.50;93.70
40556;DHT22;26250;45.422;11.100;2023-04-24T03:29:02;17.60;93.60
40556;DHT22;26250;45.422;11.100;2023-04-24T03:31:29;17.60;93.40
40556;DHT22;26250;45.422;11.100;2023-04-24T03:33:57;17.70;93.50
40556;DHT22;26250;45.422;11.100;2023-04-24T03:36:24;17.70;93.60
40556;DHT22;26250;45.422;11.100;2023-04-24T03:38:53;17.70;93.90
40556;DHT22;26250;45.422;11.100;2023-04-24T03:41:29;17.60;93.90
40556;DHT22;26250;45.422;11.100;2023-04-24T03:44:13;17.70;94.50
40556;DHT22;26250;45.422;11.100;2023-04-24T03:46:40;17.60;93.80
40556;DHT22;26250;45.422;11.100;2023-04-24T03:49:08;17.60;93.80
40556;DHT22;26250;45.422;11.100;2023-04-24T03:51:41;17.50;93.70
40556;DHT22;26250;45.422;11.100;2023-04-24T03:54:16;17.40;93.80
40556;DHT22;26250;45.422;11.100;2023-04-24T03:56:44;17.20;94.20
40556;DHT22;26250;45.422;11.100;2023-04-24T03:59:12;17.20;94.30
40556;DHT22;26250;45.422;11.100;2023-04-24T04:01:43;17.20;94.20
40556;DHT22;26250;45.422;11.100;2023-04-24T04:04:13;17.20;94.30
40556;DHT22;26250;45.422;11.100;2023-04-24T04:06:43;17.20;94.50
40556;DHT22;26250;45.422;11.100;2023-04-24T04:09:10;17.20;94.70
40556;DHT22;26250;45.422;11.100;2023-04-24T04:11:37;17.20;94.50
40556;DHT22;26250;45.422;11.100;2023-04-24T04:14:06;17.20;95.00
40556;DHT22;26250;45.422;11.100;2023-04-24T04:16:35;17.30;94.70
40556;DHT22;26250;45.422;11.100;2023-04-24T04:19:04;17.20;94.60
40556;DHT22;26250;45.422;11.100;2023-04-24T04:21:32;17.30;94.80
40556;DHT22;26250;45.422;11.100;2023-04-24T04:24:17;17.30;94.90
40556;DHT22;26250;45.422;11.100;2023-04-24T04:26:46;17.30;95.00
40556;DHT22;26250;45.422;11.100;2023-04-24T04:29:27;17.40;95.20
40556;DHT22;26250;45.422;11.100;2023-04-24T04:31:54;17.20;95.40
40556;DHT22;26250;45.422;11.100;2023-04-24T04:34:22;17.10;95.80
40556;DHT22;26250;45.422;11.100;2023-04-24T04:36:51;17.00;96.20
40556;DHT22;26250;45.422;11.100;2023-04-24T04:39:53;17.00;95.90
40556;DHT22;26250;45.422;11.100;2023-04-24T04:42:25;17.00;95.90
40556;DHT22;26250;45.422;11.100;2023-04-24T04:44:52;17.00;96.30
40556;DHT22;26250;45.422;11.100;2023-04-24T04:47:25;17.10;96.30
40556;DHT22;26250;45.422;11.100;2023-04-24T04:49:55;17.00;96.50
40556;DHT22;26250;45.422;11.100;2023-04-24T04:52:25;16.80;97.40
40556;DHT22;26250;45.422;11.100;2023-04-24T04:55:13;16.80;97.40
40556;DHT22;26250;45.422;11.100;2023-04-24T04:58:16;16.70;97.60
40556;DHT22;26250;45.422;11.100;2023-04-24T05:00:45;16.70;97.50
40556;DHT22;26250;45.422;11.100;2023-04-24T05:03:20;16.80;97.30
40556;DHT22;26250;45.422;11.100;2023-04-24T05:05:54;16.90;97.20
40556;DHT22;26250;45.422;11.100;2023-04-24T05:08:22;16.80;97.30
40556;DHT22;26250;45.422;11.100;2023-04-24T05:10:54;16.70;98.30
40556;DHT22;26250;45.422;11.100;2023-04-24T05:13:23;16.70;98.40
40556;DHT22;26250;45.422;11.100;2023-04-24T05:15:55;16.60;98.70
40556;DHT22;26250;45.422;11.100;2023-04-24T05:18:23;16.40;99.00
40556;DHT22;26250;45.422;11.100;2023-04-24T05:20:50;16.40;98.90
40556;DHT22;26250;45.422;11.100;2023-04-24T05:23:20;16.50;98.90
40556;DHT22;26250;45.422;11.100;2023-04-24T05:25:51;16.60;98.20
40556;DHT22;26250;45.422;11.100;2023-04-24T05:28:19;16.60;97.90
40556;DHT22;26250;45.422;11.100;2023-04-24T05:30:59;16.60;97.40
40556;DHT22;26250;45.422;11.100;2023-04-24T05:33:26;16.60;97.30
40556;DHT22;26250;45.422;11.100;2023-04-24T05:35:53;16.60;96.90
40556;DHT22;26250;45.422;11.100;2023-04-24T05:38:20;16.70;96.60
40556;DHT22;26250;45.422;11.100;2023-04-24T05:40:47;16.60;96.30
40556;DHT22;26250;45.422;11.100;2023-04-24T05:43:14;16.60;94.90
40556;DHT22;26250;45.422;11.100;2023-04-24T05:45:41;16.60;93.90
40556;DHT22;26250;45.422;11.100;2023-04-24T05:48:08;16.50;94.10
40556;DHT22;26250;45.422;11.100;2023-04-24T05:50:35;16.50;93.60
40556;DHT22;26250;45.422;11.100;2023-04-24T05:53:03;16.50;93.80
40556;DHT22;26250;45.422;11.100;2023-04-24T05:55:33;16.50;93.90
40556;DHT22;26250;45.422;11.100;2023-04-24T05:58:00;16.60;94.60
40556;DHT22;26250;45.422;11.100;2023-04-24T06:00:28;16.70;94.50
40556;DHT22;26250;45.422;11.100;2023-04-24T06:03:04;16.70;94.80
40556;DHT22;26250;45.422;11.100;2023-04-24T06:05:31;16.70;94.30
40556;DHT22;26250;45.422;11.100;2023-04-24T06:07:58;16.80;94.10
40556;DHT22;26250;45.422;11.100;2023-04-24T06:10:31;16.70;94.10
40556;DHT22;26250;45.422;11.100;2023-04-24T06:12:58;16.50;94.30
40556;DHT22;26250;45.422;11.100;2023-04-24T06:15:29;16.40;94.60
40556;DHT22;26250;45.422;11.100;2023-04-24T06:18:09;16.30;94.40
40556;DHT22;26250;45.422;11.100;2023-04-24T06:20:40;16.50;94.60
40556;DHT22;26250;45.422;11.100;2023-04-24T06:23:09;16.50;94.50
40556;DHT22;26250;45.422;11.100;2023-04-24T06:25:38;16.60;94.40
40556;DHT22;26250;45.422;11.100;2023-04-24T06:28:05;16.60;93.50
40556;DHT22;26250;45.422;11.100;2023-04-24T06:30:32;16.60;94.00
40556;DHT22;26250;45.422;11.100;2023-04-24T06:33:00;16.60;94.30
40556;DHT22;26250;45.422;11.100;2023-04-24T06:35:45;16.60;94.50
40556;DHT22;26250;45.422;11.100;2023-04-24T06:38:12;16.50;94.80
40556;DHT22;26250;45.422;11.100;2023-04-24T06:40:39;16.50;94.50
40556;DHT22;26250;45.422;11.100;2023-04-24T06:43:06;16.50;94.30
40556;DHT22;26250;45.422;11.100;2023-04-24T06:45:33;16.50;93.80
40556;DHT22;26250;45.422;11.100;2023-04-24T06:48:00;16.60;94.50
40556;DHT22;26250;45.422;11.100;2023-04-24T06:50:27;16.60;94.10
40556;DHT22;26250;45.422;11.100;2023-04-24T06:52:54;16.60;94.50
40556;DHT22;26250;45.422;11.100;2023-04-24T06:55:21;16.70;94.40
40556;DHT22;26250;45.422;11.100;2023-04-24T06:57:48;16.70;94.30
40556;DHT22;26250;45.422;11.100;2023-04-24T07:00:15;16.60;95.20
40556;DHT22;26250;45.422;11.100;2023-04-24T07:02:42;16.70;95.10
40556;DHT22;26250;45.422;11.100;2023-04-24T07:05:09;16.70;94.50
40556;DHT22;26250;45.422;11.100;2023-04-24T07:07:36;16.70;94.30
40556;DHT22;26250;45.422;11.100;2023-04-24T07:10:05;16.90;94.80
40556;DHT22;26250;45.422;11.100;2023-04-24T07:12:32;16.90;94.20
40556;DHT22;26250;45.422;11.100;2023-04-24T07:15:00;16.90;94.70
40556;DHT22;26250;45.422;11.100;2023-04-24T07:17:27;17.00;94.70
40556;DHT22;26250;45.422;11.100;2023-04-24T07:19:54;17.10;94.10
40556;DHT22;26250;45.422;11.100;2023-04-24T07:22:21;17.20;93.80
40556;DHT22;26250;45.422;11.100;2023-04-24T07:24:48;17.30;93.50
40556;DHT22;26250;45.422;11.100;2023-04-24T07:27:15;17.40;93.80
40556;DHT22;26250;45.422;11.100;2023-04-24T07:29:42;17.50;93.70
40556;DHT22;26250;45.422;11.100;2023-04-24T07:32:10;17.50;93.50
40556;DHT22;26250;45.422;11.100;2023-04-24T07:34:37;17.40;93.80
40556;DHT22;26250;45.422;11.100;2023-04-24T07:37:04;17.40;93.90
40556;DHT22;26250;45.422;11.100;2023-04-24T07:39:31;17.30;93.50
40556;DHT22;26250;45.422;11.100;2023-04-24T07:41:58;17.40;93.70
40556;DHT22;26250;45.422;11.100;2023-04-24T07:44:26;17.50;93.50
40556;DHT22;26250;45.422;11.100;2023-04-24T07:46:53;17.60;93.70
40556;DHT22;26250;45.422;11.100;2023-04-24T07:49:20;17.70;93.50
40556;DHT22;26250;45.422;11.100;2023-04-24T07:51:49;17.80;93.70
40556;DHT22;26250;45.422;11.100;2023-04-24T07:54:16;17.80;93.50
40556;DHT22;26250;45.422;11.100;2023-04-24T07:56:43;17.90;93.10
40556;DHT22;26250;45.422;11.100;2023-04-24T07:59:10;17.90;93.30
40556;DHT22;26250;45.422;11.100;2023-04-24T08:01:37;17.90;93.90
40556;DHT22;26250;45.422;11.100;2023-04-24T08:04:05;17.90;94.20
40556;DHT22;26250;45.422;11.100;2023-04-24T08:06:32;18.00;94.40
40556;DHT22;26250;45.422;11.100;2023-04-24T08:09:00;18.00;93.90
40556;DHT22;26250;45.422;11.100;2023-04-24T08:11:27;18.00;94.20
40556;DHT22;26250;45.422;11.100;2023-04-24T08:13:56;18.00;93.80
40556;DHT22;26250;45.422;11.100;2023-04-24T08:16:23;18.10;93.80
40556;DHT22;26250;45.422;11.100;2023-04-24T08:18:51;18.10;93.80
40556;DHT22;26250;45.422;11.100;2023-04-24T08:21:18;18.10;93.90
40556;DHT22;26250;45.422;11.100;2023-04-24T08:23:48;18.10;93.80
40556;DHT22;26250;45.422;11.100;2023-04-24T08:26:15;18.10;93.60
40556;DHT22;26250;45.422;11.100;2023-04-24T08:28:42;17.90;93.20
40556;DHT22;26250;45.422;11.100;2023-04-24T08:31:11;17.90;92.50
40556;DHT22;26250;45.422;11.100;2023-04-24T08:33:38;17.80;91.30
40556;DHT22;26250;45.422;11.100;2023-04-24T08:36:05;17.80;91.80
40556;DHT22;26250;45.422;11.100;2023-04-24T08:38:33;17.80;90.00
40556;DHT22;26250;45.422;11.100;2023-04-24T08:41:01;17.80;86.50
40556;DHT22;26250;45.422;11.100;2023-04-24T08:43:28;17.90;87.60
40556;DHT22;26250;45.422;11.100;2023-04-24T08:45:56;17.90;87.30
40556;DHT22;26250;45.422;11.100;2023-04-24T08:48:23;17.90;86.20
40556;DHT22;26250;45.422;11.100;2023-04-24T08:50:58;17.90;86.30
40556;DHT22;26250;45.422;11.100;2023-04-24T08:53:28;17.90;85.40
40556;DHT22;26250;45.422;11.100;2023-04-24T08:55:56;18.00;85.90
40556;DHT22;26250;45.422;11.100;2023-04-24T08:58:25;18.00;85.60
40556;DHT22;26250;45.422;11.100;2023-04-24T09:00:57;18.10;86.40
40556;DHT22;26250;45.422;11.100;2023-04-24T09:03:27;18.10;86.20
40556;DHT22;26250;45.422;11.100;2023-04-24T09:05:55;18.10;81.60
40556;DHT22;26250;45.422;11.100;2023-04-24T09:08:25;18.00;82.30
40556;DHT22;26250;45.422;11.100;2023-04-24T09:10:52;18.10;84.50
40556;DHT22;26250;45.422;11.100;2023-04-24T09:13:20;18.10;83.70
40556;DHT22;26250;45.422;11.100;2023-04-24T09:15:47;18.20;82.40
40556;DHT22;26250;45.422;11.100;2023-04-24T09:18:14;18.20;80.60
40556;DHT22;26250;45.422;11.100;2023-04-24T09:21:04;18.40;81.60
40556;DHT22;26250;45.422;11.100;2023-04-24T09:23:32;18.40;81.00
40556;DHT22;26250;45.422;11.100;2023-04-24T09:26:01;18.50;82.30
40556;DHT22;26250;45.422;11.100;2023-04-24T09:28:37;18.60;82.70
40556;DHT22;26250;45.422;11.100;2023-04-24T09:31:08;18.60;80.80
40556;DHT22;26250;45.422;11.100;2023-04-24T09:33:35;18.70;80.80
40556;DHT22;26250;45.422;11.100;2023-04-24T09:36:02;18.60;80.80
40556;DHT22;26250;45.422;11.100;2023-04-24T09:38:37;18.70;81.40
40556;DHT22;26250;45.422;11.100;2023-04-24T09:41:06;18.60;78.80
40556;DHT22;26250;45.422;11.100;2023-04-24T09:43:34;18.60;79.50
40556;DHT22;26250;45.422;11.100;2023-04-24T09:46:07;18.60;82.20
40556;DHT22;26250;45.422;11.100;2023-04-24T09:48:37;18.70;80.50
40556;DHT22;26250;45.422;11.100;2023-04-24T09:51:06;18.70;79.50
40556;DHT22;26250;45.422;11.100;2023-04-24T09:53:46;18.70;82.80
40556;DHT22;26250;45.422;11.100;2023-04-24T09:56:22;18.70;82.70
40556;DHT22;26250;45.422;11.100;2023-04-24T09:58:51;18.90;83.10
40556;DHT22;26250;45.422;11.100;2023-04-24T10:01:31;18.90;81.00
40556;DHT22;26250;45.422;11.100;2023-04-24T10:03:59;18.90;81.20
40556;DHT22;26250;45.422;11.100;2023-04-24T10:06:35;18.90;81.60
40556;DHT22;26250;45.422;11.100;2023-04-24T10:09:03;19.00;81.40
40556;DHT22;26250;45.422;11.100;2023-04-24T10:11:30;19.10;81.20
40556;DHT22;26250;45.422;11.100;2023-04-24T10:13:57;19.10;79.60
40556;DHT22;26250;45.422;11.100;2023-04-24T10:16:26;19.10;77.20
40556;DHT22;26250;45.422;11.100;2023-04-24T10:18:54;19.20;80.50
40556;DHT22;26250;45.422;11.100;2023-04-24T10:21:22;19.30;80.80
40556;DHT22;26250;45.422;11.100;2023-04-24T10:23:50;19.20;77.80
40556;DHT22;26250;45.422;11.100;2023-04-24T10:26:18;19.20;78.00
40556;DHT22;26250;45.422;11.100;2023-04-24T10:28:47;19.30;77.00
40556;DHT22;26250;45.422;11.100;2023-04-24T10:31:14;19.30;77.40
40556;DHT22;26250;45.422;11.100;2023-04-24T10:33:43;19.30;76.50
40556;DHT22;26250;45.422;11.100;2023-04-24T10:36:10;19.30;76.30
40556;DHT22;26250;45.422;11.100;2023-04-24T10:38:40;19.30;76.60
40556;DHT22;26250;45.422;11.100;2023-04-24T10:41:12;19.30;76.10
40556;DHT22;26250;45.422;11.100;2023-04-24T10:43:46;19.40;78.80
40556;DHT22;26250;45.422;11.100;2023-04-24T10:46:21;19.50;79.60
40556;DHT22;26250;45.422;11.100;2023-04-24T10:48:55;19.60;79.00
40556;DHT22;26250;45.422;11.100;2023-04-24T10:51:23;19.70;80.00
40556;DHT22;26250;45.422;11.100;2023-04-24T10:53:51;19.80;80.20
40556;DHT22;26250;45.422;11.100;2023-04-24T10:56:18;19.80;79.70
40556;DHT22;26250;45.422;11.100;2023-04-24T10:58:50;19.90;77.00
40556;DHT22;26250;45.422;11.100;2023-04-24T11:01:32;19.90;74.60
40556;DHT22;26250;45.422;11.100;2023-04-24T11:04:01;20.00;74.20
40556;DHT22;26250;45.422;11.100;2023-04-24T11:06:36;20.00;76.80
40556;DHT22;26250;45.422;11.100;2023-04-24T11:09:08;20.10;75.50
40556;DHT22;26250;45.422;11.100;2023-04-24T11:11:37;20.20;73.20
40556;DHT22;26250;45.422;11.100;2023-04-24T11:14:07;20.20;73.90
40556;DHT22;26250;45.422;11.100;2023-04-24T11:16:55;20.30;71.90
40556;DHT22;26250;45.422;11.100;2023-04-24T11:19:26;20.40;73.50
40556;DHT22;26250;45.422;11.100;2023-04-24T11:27:16;20.60;70.60
40556;DHT22;26250;45.422;11.100;2023-04-24T11:35:22;20.50;72.00
40556;DHT22;26250;45.422;11.100;2023-04-24T11:37:53;20.50;74.30
40556;DHT22;26250;45.422;11.100;2023-04-24T11:40:23;20.50;72.50
40556;DHT22;26250;45.422;11.100;2023-04-24T11:42:53;20.40;72.50
40556;DHT22;26250;45.422;11.100;2023-04-24T11:45:24;20.50;74.40
40556;DHT22;26250;45.422;11.100;2023-04-24T11:47:53;20.50;72.70
40556;DHT22;26250;45.422;11.100;2023-04-24T11:50:22;20.50;71.90
40556;DHT22;26250;45.422;11.100;2023-04-24T11:52:50;20.60;73.10
40556;DHT22;26250;45.422;11.100;2023-04-24T11:57:50;20.70;72.70
40556;DHT22;26250;45.422;11.100;2023-04-24T12:00:20;20.70;70.60
40556;DHT22;26250;45.422;11.100;2023-04-24T12:02:48;20.60;70.20
40556;DHT22;26250;45.422;11.100;2023-04-24T12:05:27;20.60;71.00
40556;DHT22;26250;45.422;11.100;2023-04-24T12:07:54;20.50;68.90
40556;DHT22;26250;45.422;11.100;2023-04-24T12:10:26;20.60;70.90
40556;DHT22;26250;45.422;11.100;2023-04-24T12:12:55;20.60;71.00
40556;DHT22;26250;45.422;11.100;2023-04-24T12:15:23;20.60;70.00
40556;DHT22;26250;45.422;11.100;2023-04-24T12:17:53;20.70;71.40
40556;DHT22;26250;45.422;11.100;2023-04-24T12:20:29;20.70;67.90
40556;DHT22;26250;45.422;11.100;2023-04-24T12:22:58;20.70;68.40
40556;DHT22;26250;45.422;11.100;2023-04-24T12:25:30;20.80;69.60
40556;DHT22;26250;45.422;11.100;2023-04-24T12:30:51;20.90;67.00
40556;DHT22;26250;45.422;11.100;2023-04-24T12:33:21;20.90;72.50
40556;DHT22;26250;45.422;11.100;2023-04-24T12:35:51;20.90;63.50
40556;DHT22;26250;45.422;11.100;2023-04-24T12:38:25;20.90;67.40
40556;DHT22;26250;45.422;11.100;2023-04-24T12:41:06;20.80;61.80
40556;DHT22;26250;45.422;11.100;2023-04-24T12:43:33;20.80;63.50
40556;DHT22;26250;45.422;11.100;2023-04-24T12:46:01;20.90;64.20
40556;DHT22;26250;45.422;11.100;2023-04-24T12:48:31;20.80;63.90
40556;DHT22;26250;45.422;11.100;2023-04-24T12:50:58;20.90;64.00
40556;DHT22;26250;45.422;11.100;2023-04-24T12:53:28;20.90;63.50
40556;DHT22;26250;45.422;11.100;2023-04-24T12:55:56;21.00;62.80
40556;DHT22;26250;45.422;11.100;2023-04-24T12:58:24;21.10;69.20
40556;DHT22;26250;45.422;11.100;2023-04-24T13:00:51;21.10;66.10
40556;DHT22;26250;45.422;11.100;2023-04-24T13:03:18;21.10;65.90
40556;DHT22;26250;45.422;11.100;2023-04-24T13:05:45;21.20;67.00
40556;DHT22;26250;45.422;11.100;2023-04-24T13:08:12;21.20;68.80
40556;DHT22;26250;45.422;11.100;2023-04-24T13:10:39;21.20;63.50
40556;DHT22;26250;45.422;11.100;2023-04-24T13:13:08;21.30;66.60
40556;DHT22;26250;45.422;11.100;2023-04-24T13:15:35;21.20;69.30
40556;DHT22;26250;45.422;11.100;2023-04-24T13:18:05;21.20;64.90
40556;DHT22;26250;45.422;11.100;2023-04-24T13:20:32;21.20;64.70
40556;DHT22;26250;45.422;11.100;2023-04-24T13:22:59;21.30;64.10
40556;DHT22;26250;45.422;11.100;2023-04-24T13:25:26;21.30;64.00
40556;DHT22;26250;45.422;11.100;2023-04-24T13:27:54;21.30;65.00
40556;DHT22;26250;45.422;11.100;2023-04-24T13:30:21;21.30;63.60
40556;DHT22;26250;45.422;11.100;2023-04-24T13:32:48;21.40;63.30
40556;DHT22;26250;45.422;11.100;2023-04-24T13:35:15;21.50;63.10
40556;DHT22;26250;45.422;11.100;2023-04-24T13:37:42;21.60;63.90
40556;DHT22;26250;45.422;11.100;2023-04-24T13:40:09;21.70;62.00
40556;DHT22;26250;45.422;11.100;2023-04-24T13:42:40;21.70;61.20
40556;DHT22;26250;45.422;11.100;2023-04-24T13:45:07;21.80;62.00
40556;DHT22;26250;45.422;11.100;2023-04-24T13:47:50;21.90;62.20
40556;DHT22;26250;45.422;11.100;2023-04-24T13:50:18;22.00;59.90
40556;DHT22;26250;45.422;11.100;2023-04-24T13:52:45;22.00;62.70
40556;DHT22;26250;45.422;11.100;2023-04-24T13:55:12;22.00;59.60
40556;DHT22;26250;45.422;11.100;2023-04-24T13:57:39;22.00;59.20
40556;DHT22;26250;45.422;11.100;2023-04-24T14:00:07;22.00;57.10
40556;DHT22;26250;45.422;11.100;2023-04-24T14:02:37;21.80;59.00
40556;DHT22;26250;45.422;11.100;2023-04-24T14:05:05;21.80;61.30
40556;DHT22;26250;45.422;11.100;2023-04-24T14:07:33;21.90;63.70
40556;DHT22;26250;45.422;11.100;2023-04-24T14:10:00;21.90;63.90
40556;DHT22;26250;45.422;11.100;2023-04-24T14:12:27;21.90;66.00
40556;DHT22;26250;45.422;11.100;2023-04-24T14:14:54;21.80;64.50
40556;DHT22;26250;45.422;11.100;2023-04-24T14:17:21;21.70;64.80
40556;DHT22;26250;45.422;11.100;2023-04-24T14:19:48;21.60;65.90
40556;DHT22;26250;45.422;11.100;2023-04-24T14:22:15;21.50;63.70
40556;DHT22;26250;45.422;11.100;2023-04-24T14:24:42;21.50;66.60
40556;DHT22;26250;45.422;11.100;2023-04-24T14:27:08;21.60;66.60
40556;DHT22;26250;45.422;11.100;2023-04-24T14:29:35;21.70;63.60
40556;DHT22;26250;45.422;11.100;2023-04-24T14:32:05;21.70;68.00
40556;DHT22;26250;45.422;11.100;2023-04-24T14:34:32;21.80;63.90
40556;DHT22;26250;45.422;11.100;2023-04-24T14:36:59;21.80;63.40
40556;DHT22;26250;45.422;11.100;2023-04-24T14:39:26;21.90;62.90
40556;DHT22;26250;45.422;11.100;2023-04-24T14:41:53;22.00;61.90
40556;DHT22;26250;45.422;11.100;2023-04-24T14:44:20;21.90;64.80
40556;DHT22;26250;45.422;11.100;2023-04-24T14:46:48;21.90;62.20
40556;DHT22;26250;45.422;11.100;2023-04-24T14:49:15;21.90;64.80
40556;DHT22;26250;45.422;11.100;2023-04-24T14:51:42;22.00;65.10
40556;DHT22;26250;45.422;11.100;2023-04-24T14:54:10;21.90;62.90
40556;DHT22;26250;45.422;11.100;2023-04-24T14:56:37;21.80;65.00
40556;DHT22;26250;45.422;11.100;2023-04-24T14:59:06;21.80;64.30
40556;DHT22;26250;45.422;11.100;2023-04-24T15:01:34;21.80;65.60
40556;DHT22;26250;45.422;11.100;2023-04-24T15:04:00;21.80;64.60
40556;DHT22;26250;45.422;11.100;2023-04-24T15:06:29;21.80;63.10
40556;DHT22;26250;45.422;11.100;2023-04-24T15:08:58;21.70;62.40
40556;DHT22;26250;45.422;11.100;2023-04-24T15:11:25;21.70;62.70
40556;DHT22;26250;45.422;11.100;2023-04-24T15:13:52;21.70;65.10
40556;DHT22;26250;45.422;11.100;2023-04-24T15:16:19;21.80;66.70
40556;DHT22;26250;45.422;11.100;2023-04-24T15:18:47;21.80;68.80
40556;DHT22;26250;45.422;11.100;2023-04-24T15:21:14;21.70;69.50
40556;DHT22;26250;45.422;11.100;2023-04-24T15:23:41;21.70;70.90
40556;DHT22;26250;45.422;11.100;2023-04-24T15:26:08;21.70;71.20
40556;DHT22;26250;45.422;11.100;2023-04-24T15:28:35;21.70;72.00
40556;DHT22;26250;45.422;11.100;2023-04-24T15:31:01;21.70;71.60
40556;DHT22;26250;45.422;11.100;2023-04-24T15:33:28;21.70;72.10
40556;DHT22;26250;45.422;11.100;2023-04-24T15:35:55;21.70;71.80
40556;DHT22;26250;45.422;11.100;2023-04-24T15:38:22;21.60;70.90
40556;DHT22;26250;45.422;11.100;2023-04-24T15:40:52;21.70;69.70
40556;DHT22;26250;45.422;11.100;2023-04-24T15:43:19;21.70;71.20